sensor_id;sensor_type;location;lat;lon;timestamp;P1;durP1;ratioP1;P2;durP2;ratioP2
84519;SDS011;74755;43.084;0.132;2024-02-14T00:01:11;6.95;;;1.55;;
84519;SDS011;74755;43.084;0.132;2024-02-14T00:03:37;4.78;;;0.98;;
84519;SDS011;74755;43.084;0.132;2024-02-14T00:06:04;4.57;;;1.30;;
84519;SDS011;74755;43.084;0.132;2024-02-14T00:08:30;1.85;;;1.20;;
84519;SDS011;74755;43.084;0.132;2024-02-14T00:10:56;2.38;;;1.15;;
84519;SDS011;74755;43.084;0.132;2024-02-14T00:13:23;5.45;;;1.30;;
84519;SDS011;74755;43.084;0.132;2024-02-14T00:15:49;2.70;;;0.82;;
84519;SDS011;74755;43.084;0.132;2024-02-14T00:18:16;2.63;;;1.02;;
84519;SDS011;74755;43.084;0.132;2024-02-14T00:20:42;4.07;;;1.63;;
84519;SDS011;74755;43.084;0.132;2024-02-14T00:23:08;6.07;;;1.50;;
84519;SDS011;74755;43.084;0.132;2024-02-14T00:25:35;2.88;;;1.60;;
84519;SDS011;74755;43.084;0.132;2024-02-14T00:28:01;3.63;;;1.30;;
84519;SDS011;74755;43.084;0.132;2024-02-14T00:30:28;1.98;;;1.10;;
84519;SDS011;74755;43.084;0.132;2024-02-14T00:32:55;3.10;;;1.45;;
84519;SDS011;74755;43.084;0.132;2024-02-14T00:35:21;2.88;;;1.20;;
84519;SDS011;74755;43.084;0.132;2024-02-14T00:37:47;1.67;;;1.10;;
84519;SDS011;74755;43.084;0.132;2024-02-14T00:40:13;4.00;;;1.30;;
84519;SDS011;74755;43.084;0.132;2024-02-14T00:42:39;5.32;;;1.35;;
84519;SDS011;74755;43.084;0.132;2024-02-14T00:45:06;1.85;;;0.80;;
84519;SDS011;74755;43.084;0.132;2024-02-14T00:47:35;3.10;;;0.98;;
84519;SDS011;74755;43.084;0.132;2024-02-14T00:50:04;3.90;;;0.90;;
84519;SDS011;74755;43.084;0.132;2024-02-14T00:52:30;2.42;;;0.68;;
84519;SDS011;74755;43.084;0.132;2024-02-14T00:54:56;1.90;;;0.70;;
84519;SDS011;74755;43.084;0.132;2024-02-14T00:57:22;1.75;;;1.05;;
84519;SDS011;74755;43.084;0.132;2024-02-14T00:59:51;1.63;;;0.70;;
84519;SDS011;74755;43.084;0.132;2024-02-14T01:02:17;3.40;;;0.70;;
84519;SDS011;74755;43.084;0.132;2024-02-14T01:04:44;3.00;;;0.95;;
84519;SDS011;74755;43.084;0.132;2024-02-14T01:07:10;2.42;;;0.75;;
84519;SDS011;74755;43.084;0.132;2024-02-14T01:09:36;1.30;;;0.80;;
84519;SDS011;74755;43.084;0.132;2024-02-14T01:12:02;2.72;;;0.75;;
84519;SDS011;74755;43.084;0.132;2024-02-14T01:14:30;5.85;;;1.02;;
84519;SDS011;74755;43.084;0.132;2024-02-14T01:16:57;2.00;;;1.00;;
84519;SDS011;74755;43.084;0.132;2024-02-14T01:19:23;1.02;;;0.70;;
84519;SDS011;74755;43.084;0.132;2024-02-14T01:21:53;3.70;;;1.02;;
84519;SDS011;74755;43.084;0.132;2024-02-14T01:24:20;2.08;;;0.85;;
84519;SDS011;74755;43.084;0.132;2024-02-14T01:26:47;1.48;;;0.80;;
84519;SDS011;74755;43.084;0.132;2024-02-14T01:29:14;1.83;;;0.90;;
84519;SDS011;74755;43.084;0.132;2024-02-14T01:31:41;4.45;;;0.90;;
84519;SDS011;74755;43.084;0.132;2024-02-14T01:34:07;5.43;;;0.88;;
84519;SDS011;74755;43.084;0.132;2024-02-14T01:36:33;2.78;;;0.75;;
84519;SDS011;74755;43.084;0.132;2024-02-14T01:38:59;0.80;;;0.70;;
84519;SDS011;74755;43.084;0.132;2024-02-14T01:41:25;1.30;;;0.90;;
84519;SDS011;74755;43.084;0.132;2024-02-14T01:43:52;1.70;;;0.70;;
84519;SDS011;74755;43.084;0.132;2024-02-14T01:46:18;0.80;;;0.80;;
84519;SDS011;74755;43.084;0.132;2024-02-14T01:48:44;2.55;;;0.60;;
84519;SDS011;74755;43.084;0.132;2024-02-14T01:51:11;2.72;;;0.90;;
84519;SDS011;74755;43.084;0.132;2024-02-14T01:53:37;0.50;;;0.50;;
84519;SDS011;74755;43.084;0.132;2024-02-14T01:56:03;5.32;;;1.00;;
84519;SDS011;74755;43.084;0.132;2024-02-14T01:58:31;1.98;;;0.77;;
84519;SDS011;74755;43.084;0.132;2024-02-14T02:00:57;2.78;;;0.90;;
84519;SDS011;74755;43.084;0.132;2024-02-14T02:03:24;3.97;;;0.93;;
84519;SDS011;74755;43.084;0.132;2024-02-14T02:05:51;2.33;;;0.70;;
84519;SDS011;74755;43.084;0.132;2024-02-14T02:08:18;4.40;;;0.82;;
84519;SDS011;74755;43.084;0.132;2024-02-14T02:10:44;2.58;;;0.60;;
84519;SDS011;74755;43.084;0.132;2024-02-14T02:13:11;1.55;;;0.73;;
84519;SDS011;74755;43.084;0.132;2024-02-14T02:15:37;0.93;;;0.55;;
84519;SDS011;74755;43.084;0.132;2024-02-14T02:18:03;2.35;;;1.00;;
84519;SDS011;74755;43.084;0.132;2024-02-14T02:20:32;3.50;;;0.90;;
84519;SDS011;74755;43.084;0.132;2024-02-14T02:22:58;3.42;;;0.80;;
84519;SDS011;74755;43.084;0.132;2024-02-14T02:25:25;0.80;;;0.65;;
84519;SDS011;74755;43.084;0.132;2024-02-14T02:27:51;4.00;;;1.30;;
84519;SDS011;74755;43.084;0.132;2024-02-14T02:30:22;2.15;;;0.80;;
84519;SDS011;74755;43.084;0.132;2024-02-14T02:32:49;4.63;;;0.80;;
84519;SDS011;74755;43.084;0.132;2024-02-14T02:35:16;0.98;;;0.57;;
84519;SDS011;74755;43.084;0.132;2024-02-14T02:37:45;2.05;;;0.70;;
84519;SDS011;74755;43.084;0.132;2024-02-14T02:40:13;1.23;;;0.70;;
84519;SDS011;74755;43.084;0.132;2024-02-14T02:42:39;0.73;;;0.52;;
84519;SDS011;74755;43.084;0.132;2024-02-14T02:45:06;2.42;;;0.68;;
84519;SDS011;74755;43.084;0.132;2024-02-14T02:47:32;3.75;;;0.55;;
84519;SDS011;74755;43.084;0.132;2024-02-14T02:49:58;2.78;;;1.65;;
84519;SDS011;74755;43.084;0.132;2024-02-14T02:52:26;0.70;;;0.57;;
84519;SDS011;74755;43.084;0.132;2024-02-14T02:54:58;0.82;;;0.50;;
84519;SDS011;74755;43.084;0.132;2024-02-14T02:57:26;0.50;;;0.50;;
84519;SDS011;74755;43.084;0.132;2024-02-14T02:59:52;1.92;;;0.50;;
84519;SDS011;74755;43.084;0.132;2024-02-14T03:02:19;3.15;;;0.50;;
84519;SDS011;74755;43.084;0.132;2024-02-14T03:04:45;2.22;;;0.68;;
84519;SDS011;74755;43.084;0.132;2024-02-14T03:07:12;2.30;;;0.80;;
84519;SDS011;74755;43.084;0.132;2024-02-14T03:09:38;0.75;;;0.40;;
84519;SDS011;74755;43.084;0.132;2024-02-14T03:12:04;0.88;;;0.60;;
84519;SDS011;74755;43.084;0.132;2024-02-14T03:14:31;5.32;;;0.95;;
84519;SDS011;74755;43.084;0.132;2024-02-14T03:17:00;2.33;;;0.82;;
84519;SDS011;74755;43.084;0.132;2024-02-14T03:19:26;3.63;;;0.70;;
84519;SDS011;74755;43.084;0.132;2024-02-14T03:21:53;1.70;;;0.70;;
84519;SDS011;74755;43.084;0.132;2024-02-14T03:24:19;2.38;;;0.70;;
84519;SDS011;74755;43.084;0.132;2024-02-14T03:26:45;1.33;;;0.90;;
84519;SDS011;74755;43.084;0.132;2024-02-14T03:29:11;1.10;;;0.50;;
84519;SDS011;74755;43.084;0.132;2024-02-14T03:31:38;0.70;;;0.55;;
84519;SDS011;74755;43.084;0.132;2024-02-14T03:34:04;1.30;;;0.75;;
84519;SDS011;74755;43.084;0.132;2024-02-14T03:36:30;1.60;;;0.60;;
84519;SDS011;74755;43.084;0.132;2024-02-14T03:38:57;1.30;;;0.70;;
84519;SDS011;74755;43.084;0.132;2024-02-14T03:41:24;2.80;;;0.50;;
84519;SDS011;74755;43.084;0.132;2024-02-14T03:43:50;5.90;;;1.02;;
84519;SDS011;74755;43.084;0.132;2024-02-14T03:46:18;2.33;;;0.50;;
84519;SDS011;74755;43.084;0.132;2024-02-14T03:48:46;1.13;;;0.82;;
84519;SDS011;74755;43.084;0.132;2024-02-14T03:51:16;1.25;;;0.60;;
84519;SDS011;74755;43.084;0.132;2024-02-14T03:53:42;3.28;;;1.17;;
84519;SDS011;74755;43.084;0.132;2024-02-14T03:56:08;5.32;;;0.85;;
84519;SDS011;74755;43.084;0.132;2024-02-14T03:58:34;0.60;;;0.40;;
84519;SDS011;74755;43.084;0.132;2024-02-14T04:01:05;2.17;;;0.60;;
84519;SDS011;74755;43.084;0.132;2024-02-14T04:03:31;0.82;;;0.40;;
84519;SDS011;74755;43.084;0.132;2024-02-14T04:05:57;3.83;;;0.70;;
84519;SDS011;74755;43.084;0.132;2024-02-14T04:08:23;1.77;;;0.40;;
84519;SDS011;74755;43.084;0.132;2024-02-14T04:10:49;5.82;;;0.70;;
84519;SDS011;74755;43.084;0.132;2024-02-14T04:13:16;0.55;;;0.45;;
84519;SDS011;74755;43.084;0.132;2024-02-14T04:15:42;1.35;;;0.30;;
84519;SDS011;74755;43.084;0.132;2024-02-14T04:18:08;1.63;;;0.40;;
84519;SDS011;74755;43.084;0.132;2024-02-14T04:20:34;5.30;;;0.60;;
84519;SDS011;74755;43.084;0.132;2024-02-14T04:23:01;0.82;;;0.47;;
84519;SDS011;74755;43.084;0.132;2024-02-14T04:25:27;0.85;;;0.75;;
84519;SDS011;74755;43.084;0.132;2024-02-14T04:27:53;1.23;;;0.60;;
84519;SDS011;74755;43.084;0.132;2024-02-14T04:30:19;4.00;;;0.60;;
84519;SDS011;74755;43.084;0.132;2024-02-14T04:32:45;0.70;;;0.60;;
84519;SDS011;74755;43.084;0.132;2024-02-14T04:35:11;2.03;;;0.80;;
84519;SDS011;74755;43.084;0.132;2024-02-14T04:37:38;0.90;;;0.60;;
84519;SDS011;74755;43.084;0.132;2024-02-14T04:40:05;2.63;;;0.50;;
84519;SDS011;74755;43.084;0.132;2024-02-14T04:42:31;2.22;;;0.70;;
84519;SDS011;74755;43.084;0.132;2024-02-14T04:44:57;2.70;;;0.77;;
84519;SDS011;74755;43.084;0.132;2024-02-14T04:47:23;0.55;;;0.43;;
84519;SDS011;74755;43.084;0.132;2024-02-14T04:49:49;2.55;;;0.35;;
84519;SDS011;74755;43.084;0.132;2024-02-14T04:52:16;2.65;;;0.63;;
84519;SDS011;74755;43.084;0.132;2024-02-14T04:54:42;1.90;;;0.50;;
84519;SDS011;74755;43.084;0.132;2024-02-14T04:57:08;2.00;;;0.47;;
84519;SDS011;74755;43.084;0.132;2024-02-14T04:59:34;2.17;;;0.47;;
84519;SDS011;74755;43.084;0.132;2024-02-14T05:02:00;0.40;;;0.40;;
84519;SDS011;74755;43.084;0.132;2024-02-14T05:04:26;1.02;;;0.65;;
84519;SDS011;74755;43.084;0.132;2024-02-14T05:06:52;0.80;;;0.50;;
84519;SDS011;74755;43.084;0.132;2024-02-14T05:09:19;3.72;;;0.60;;
84519;SDS011;74755;43.084;0.132;2024-02-14T05:11:45;0.40;;;0.40;;
84519;SDS011;74755;43.084;0.132;2024-02-14T05:14:11;0.90;;;0.80;;
84519;SDS011;74755;43.084;0.132;2024-02-14T05:16:37;1.77;;;0.60;;
84519;SDS011;74755;43.084;0.132;2024-02-14T05:19:04;1.02;;;0.70;;
84519;SDS011;74755;43.084;0.132;2024-02-14T05:21:30;1.45;;;1.15;;
84519;SDS011;74755;43.084;0.132;2024-02-14T05:23:56;1.20;;;0.63;;
84519;SDS011;74755;43.084;0.132;2024-02-14T05:26:22;0.65;;;0.52;;
84519;SDS011;74755;43.084;0.132;2024-02-14T05:28:48;0.75;;;0.55;;
84519;SDS011;74755;43.084;0.132;2024-02-14T05:31:14;1.42;;;0.90;;
84519;SDS011;74755;43.084;0.132;2024-02-14T05:33:41;2.38;;;1.00;;
84519;SDS011;74755;43.084;0.132;2024-02-14T05:36:08;3.05;;;1.33;;
84519;SDS011;74755;43.084;0.132;2024-02-14T05:38:34;2.65;;;1.40;;
84519;SDS011;74755;43.084;0.132;2024-02-14T05:41:00;3.83;;;1.80;;
84519;SDS011;74755;43.084;0.132;2024-02-14T05:43:26;1.52;;;0.93;;
84519;SDS011;74755;43.084;0.132;2024-02-14T05:45:53;3.08;;;1.05;;
84519;SDS011;74755;43.084;0.132;2024-02-14T05:48:19;2.35;;;0.77;;
84519;SDS011;74755;43.084;0.132;2024-02-14T05:50:45;0.98;;;0.57;;
84519;SDS011;74755;43.084;0.132;2024-02-14T05:53:11;0.77;;;0.70;;
84519;SDS011;74755;43.084;0.132;2024-02-14T05:55:38;1.35;;;0.63;;
84519;SDS011;74755;43.084;0.132;2024-02-14T05:58:04;1.55;;;0.68;;
84519;SDS011;74755;43.084;0.132;2024-02-14T06:00:30;1.40;;;0.70;;
84519;SDS011;74755;43.084;0.132;2024-02-14T06:02:56;4.50;;;0.57;;
84519;SDS011;74755;43.084;0.132;2024-02-14T06:05:22;0.70;;;0.50;;
84519;SDS011;74755;43.084;0.132;2024-02-14T06:07:48;0.50;;;0.50;;
84519;SDS011;74755;43.084;0.132;2024-02-14T06:10:15;4.43;;;0.50;;
84519;SDS011;74755;43.084;0.132;2024-02-14T06:12:41;2.28;;;0.63;;
84519;SDS011;74755;43.084;0.132;2024-02-14T06:15:08;1.58;;;0.40;;
84519;SDS011;74755;43.084;0.132;2024-02-14T06:17:34;3.55;;;0.57;;
84519;SDS011;74755;43.084;0.132;2024-02-14T06:20:01;0.52;;;0.40;;
84519;SDS011;74755;43.084;0.132;2024-02-14T06:22:32;0.73;;;0.60;;
84519;SDS011;74755;43.084;0.132;2024-02-14T06:25:01;1.38;;;0.90;;
84519;SDS011;74755;43.084;0.132;2024-02-14T06:27:29;0.73;;;0.52;;
84519;SDS011;74755;43.084;0.132;2024-02-14T06:29:55;2.83;;;0.50;;
84519;SDS011;74755;43.084;0.132;2024-02-14T06:32:22;1.13;;;0.50;;
84519;SDS011;74755;43.084;0.132;2024-02-14T06:34:48;7.03;;;2.40;;
84519;SDS011;74755;43.084;0.132;2024-02-14T06:37:14;8.27;;;3.90;;
84519;SDS011;74755;43.084;0.132;2024-02-14T06:39:40;5.63;;;2.70;;
84519;SDS011;74755;43.084;0.132;2024-02-14T06:42:06;12.35;;;5.07;;
84519;SDS011;74755;43.084;0.132;2024-02-14T06:44:32;10.13;;;3.45;;
84519;SDS011;74755;43.084;0.132;2024-02-14T06:46:58;64.28;;;20.58;;
84519;SDS011;74755;43.084;0.132;2024-02-14T06:49:24;94.80;;;29.90;;
84519;SDS011;74755;43.084;0.132;2024-02-14T06:51:50;48.33;;;15.93;;
84519;SDS011;74755;43.084;0.132;2024-02-14T06:54:16;92.53;;;32.28;;
84519;SDS011;74755;43.084;0.132;2024-02-14T06:56:44;58.05;;;22.52;;
84519;SDS011;74755;43.084;0.132;2024-02-14T06:59:10;9.07;;;4.25;;
84519;SDS011;74755;43.084;0.132;2024-02-14T07:01:36;6.10;;;2.50;;
84519;SDS011;74755;43.084;0.132;2024-02-14T07:04:03;5.50;;;3.45;;
84519;SDS011;74755;43.084;0.132;2024-02-14T07:06:30;4.07;;;2.35;;
84519;SDS011;74755;43.084;0.132;2024-02-14T07:08:56;25.90;;;14.23;;
84519;SDS011;74755;43.084;0.132;2024-02-14T07:11:22;10.93;;;8.05;;
84519;SDS011;74755;43.084;0.132;2024-02-14T07:13:49;9.20;;;3.58;;
84519;SDS011;74755;43.084;0.132;2024-02-14T07:16:15;5.78;;;3.05;;
84519;SDS011;74755;43.084;0.132;2024-02-14T07:18:41;6.00;;;2.83;;
84519;SDS011;74755;43.084;0.132;2024-02-14T07:21:07;4.00;;;1.90;;
84519;SDS011;74755;43.084;0.132;2024-02-14T07:23:33;3.08;;;1.67;;
84519;SDS011;74755;43.084;0.132;2024-02-14T07:25:59;2.00;;;1.30;;
84519;SDS011;74755;43.084;0.132;2024-02-14T07:28:28;5.28;;;1.20;;
84519;SDS011;74755;43.084;0.132;2024-02-14T07:30:54;2.63;;;1.20;;
84519;SDS011;74755;43.084;0.132;2024-02-14T07:33:20;2.67;;;1.45;;
84519;SDS011;74755;43.084;0.132;2024-02-14T07:35:46;6.32;;;1.98;;
84519;SDS011;74755;43.084;0.132;2024-02-14T07:38:13;15.50;;;9.18;;
84519;SDS011;74755;43.084;0.132;2024-02-14T07:40:39;12.05;;;8.18;;
84519;SDS011;74755;43.084;0.132;2024-02-14T07:43:05;6.75;;;2.38;;
84519;SDS011;74755;43.084;0.132;2024-02-14T07:45:32;8.98;;;2.10;;
84519;SDS011;74755;43.084;0.132;2024-02-14T07:47:58;36.45;;;25.90;;
84519;SDS011;74755;43.084;0.132;2024-02-14T07:50:24;27.85;;;18.05;;
84519;SDS011;74755;43.084;0.132;2024-02-14T07:52:52;17.88;;;11.30;;
84519;SDS011;74755;43.084;0.132;2024-02-14T07:55:19;3.85;;;3.00;;
84519;SDS011;74755;43.084;0.132;2024-02-14T07:57:45;3.83;;;1.60;;
84519;SDS011;74755;43.084;0.132;2024-02-14T08:00:11;5.25;;;2.90;;
84519;SDS011;74755;43.084;0.132;2024-02-14T08:02:39;3.45;;;1.30;;
84519;SDS011;74755;43.084;0.132;2024-02-14T08:05:05;2.20;;;1.58;;
84519;SDS011;74755;43.084;0.132;2024-02-14T08:07:31;3.25;;;1.40;;
84519;SDS011;74755;43.084;0.132;2024-02-14T08:09:57;8.18;;;1.67;;
84519;SDS011;74755;43.084;0.132;2024-02-14T08:12:23;8.18;;;1.92;;
84519;SDS011;74755;43.084;0.132;2024-02-14T08:14:50;8.00;;;5.97;;
84519;SDS011;74755;43.084;0.132;2024-02-14T08:17:16;3.78;;;2.40;;
84519;SDS011;74755;43.084;0.132;2024-02-14T08:19:43;3.35;;;2.28;;
84519;SDS011;74755;43.084;0.132;2024-02-14T08:22:09;2.63;;;1.58;;
84519;SDS011;74755;43.084;0.132;2024-02-14T08:24:35;4.82;;;1.60;;
84519;SDS011;74755;43.084;0.132;2024-02-14T08:27:01;3.03;;;1.20;;
84519;SDS011;74755;43.084;0.132;2024-02-14T08:29:27;4.75;;;1.50;;
84519;SDS011;74755;43.084;0.132;2024-02-14T08:31:53;3.70;;;1.75;;
84519;SDS011;74755;43.084;0.132;2024-02-14T08:34:21;13.60;;;1.90;;
84519;SDS011;74755;43.084;0.132;2024-02-14T08:36:47;4.00;;;1.77;;
84519;SDS011;74755;43.084;0.132;2024-02-14T08:39:13;8.38;;;3.35;;
84519;SDS011;74755;43.084;0.132;2024-02-14T08:41:40;17.95;;;3.45;;
84519;SDS011;74755;43.084;0.132;2024-02-14T08:44:08;5.38;;;1.77;;
84519;SDS011;74755;43.084;0.132;2024-02-14T08:46:34;11.90;;;2.35;;
84519;SDS011;74755;43.084;0.132;2024-02-14T08:49:00;7.93;;;1.67;;
84519;SDS011;74755;43.084;0.132;2024-02-14T08:51:36;7.40;;;2.08;;
84519;SDS011;74755;43.084;0.132;2024-02-14T08:54:03;11.05;;;2.08;;
84519;SDS011;74755;43.084;0.132;2024-02-14T08:56:31;6.53;;;2.15;;
84519;SDS011;74755;43.084;0.132;2024-02-14T08:58:59;8.32;;;2.03;;
84519;SDS011;74755;43.084;0.132;2024-02-14T09:01:27;6.22;;;1.90;;
84519;SDS011;74755;43.084;0.132;2024-02-14T09:03:53;3.35;;;1.15;;
84519;SDS011;74755;43.084;0.132;2024-02-14T09:06:19;4.30;;;1.17;;
84519;SDS011;74755;43.084;0.132;2024-02-14T09:08:45;2.10;;;1.05;;
84519;SDS011;74755;43.084;0.132;2024-02-14T09:11:14;4.25;;;1.30;;
84519;SDS011;74755;43.084;0.132;2024-02-14T09:13:40;3.97;;;1.20;;
84519;SDS011;74755;43.084;0.132;2024-02-14T09:16:07;13.35;;;2.20;;
84519;SDS011;74755;43.084;0.132;2024-02-14T09:18:33;7.97;;;1.65;;
84519;SDS011;74755;43.084;0.132;2024-02-14T09:21:00;9.48;;;1.98;;
84519;SDS011;74755;43.084;0.132;2024-02-14T09:23:28;5.55;;;1.30;;
84519;SDS011;74755;43.084;0.132;2024-02-14T09:25:55;5.72;;;1.80;;
84519;SDS011;74755;43.084;0.132;2024-02-14T09:28:22;10.05;;;1.90;;
84519;SDS011;74755;43.084;0.132;2024-02-14T09:30:48;4.38;;;1.65;;
84519;SDS011;74755;43.084;0.132;2024-02-14T09:33:14;6.32;;;1.85;;
84519;SDS011;74755;43.084;0.132;2024-02-14T09:35:41;6.55;;;3.10;;
84519;SDS011;74755;43.084;0.132;2024-02-14T09:38:12;5.95;;;2.78;;
84519;SDS011;74755;43.084;0.132;2024-02-14T09:40:40;3.13;;;2.80;;
84519;SDS011;74755;43.084;0.132;2024-02-14T09:43:07;7.47;;;2.83;;
84519;SDS011;74755;43.084;0.132;2024-02-14T09:45:38;5.90;;;2.92;;
84519;SDS011;74755;43.084;0.132;2024-02-14T09:48:05;6.05;;;2.97;;
84519;SDS011;74755;43.084;0.132;2024-02-14T09:50:33;2.88;;;2.60;;
84519;SDS011;74755;43.084;0.132;2024-02-14T09:52:59;2.50;;;2.20;;
84519;SDS011;74755;43.084;0.132;2024-02-14T09:55:26;4.57;;;2.25;;
84519;SDS011;74755;43.084;0.132;2024-02-14T09:57:53;3.00;;;2.70;;
84519;SDS011;74755;43.084;0.132;2024-02-14T10:00:20;2.90;;;2.53;;
84519;SDS011;74755;43.084;0.132;2024-02-14T10:02:46;8.02;;;3.95;;
84519;SDS011;74755;43.084;0.132;2024-02-14T10:05:13;4.05;;;3.75;;
84519;SDS011;74755;43.084;0.132;2024-02-14T10:07:42;7.95;;;3.40;;
84519;SDS011;74755;43.084;0.132;2024-02-14T10:10:08;7.65;;;3.47;;
84519;SDS011;74755;43.084;0.132;2024-02-14T10:12:35;4.93;;;3.63;;
84519;SDS011;74755;43.084;0.132;2024-02-14T10:15:01;3.10;;;2.90;;
84519;SDS011;74755;43.084;0.132;2024-02-14T10:17:27;4.40;;;3.28;;
84519;SDS011;74755;43.084;0.132;2024-02-14T10:20:00;5.05;;;3.50;;
84519;SDS011;74755;43.084;0.132;2024-02-14T10:22:36;4.28;;;3.97;;
84519;SDS011;74755;43.084;0.132;2024-02-14T10:25:03;13.00;;;5.20;;
84519;SDS011;74755;43.084;0.132;2024-02-14T10:27:32;6.22;;;3.40;;
84519;SDS011;74755;43.084;0.132;2024-02-14T10:29:59;3.53;;;3.28;;
84519;SDS011;74755;43.084;0.132;2024-02-14T10:32:25;5.05;;;3.03;;
84519;SDS011;74755;43.084;0.132;2024-02-14T10:34:51;3.88;;;2.97;;
84519;SDS011;74755;43.084;0.132;2024-02-14T10:37:17;3.72;;;2.38;;
84519;SDS011;74755;43.084;0.132;2024-02-14T10:39:44;2.63;;;2.42;;
84519;SDS011;74755;43.084;0.132;2024-02-14T10:42:12;3.22;;;2.72;;
84519;SDS011;74755;43.084;0.132;2024-02-14T10:44:39;26.73;;;4.20;;
84519;SDS011;74755;43.084;0.132;2024-02-14T10:47:06;3.40;;;3.10;;
84519;SDS011;74755;43.084;0.132;2024-02-14T10:49:32;4.05;;;2.83;;
84519;SDS011;74755;43.084;0.132;2024-02-14T10:51:59;2.78;;;2.58;;
84519;SDS011;74755;43.084;0.132;2024-02-14T10:54:29;2.90;;;2.70;;
84519;SDS011;74755;43.084;0.132;2024-02-14T10:56:57;2.83;;;2.63;;
84519;SDS011;74755;43.084;0.132;2024-02-14T10:59:25;2.55;;;2.35;;
84519;SDS011;74755;43.084;0.132;2024-02-14T11:04:53;3.47;;;2.58;;
84519;SDS011;74755;43.084;0.132;2024-02-14T11:07:22;3.65;;;2.90;;
84519;SDS011;74755;43.084;0.132;2024-02-14T11:10:08;8.02;;;4.30;;
84519;SDS011;74755;43.084;0.132;2024-02-14T11:12:40;2.88;;;2.67;;
84519;SDS011;74755;43.084;0.132;2024-02-14T11:15:10;2.72;;;2.50;;
84519;SDS011;74755;43.084;0.132;2024-02-14T11:17:36;2.40;;;2.30;;
84519;SDS011;74755;43.084;0.132;2024-02-14T11:23:03;2.40;;;2.30;;
84519;SDS011;74755;43.084;0.132;2024-02-14T11:25:34;2.17;;;2.08;;
84519;SDS011;74755;43.084;0.132;2024-02-14T11:28:12;1.92;;;1.83;;
84519;SDS011;74755;43.084;0.132;2024-02-14T11:30:48;2.30;;;2.20;;
84519;SDS011;74755;43.084;0.132;2024-02-14T11:33:21;2.10;;;1.90;;
84519;SDS011;74755;43.084;0.132;2024-02-14T11:35:51;2.22;;;2.08;;
84519;SDS011;74755;43.084;0.132;2024-02-14T11:38:21;2.20;;;2.10;;
84519;SDS011;74755;43.084;0.132;2024-02-14T11:40:48;2.20;;;2.08;;
84519;SDS011;74755;43.084;0.132;2024-02-14T11:43:18;2.70;;;2.58;;
84519;SDS011;74755;43.084;0.132;2024-02-14T11:45:48;1.67;;;1.58;;
84519;SDS011;74755;43.084;0.132;2024-02-14T11:48:23;1.85;;;1.75;;
84519;SDS011;74755;43.084;0.132;2024-02-14T11:50:49;2.17;;;2.08;;
84519;SDS011;74755;43.084;0.132;2024-02-14T11:53:17;2.20;;;2.10;;
84519;SDS011;74755;43.084;0.132;2024-02-14T11:55:46;2.05;;;1.95;;
84519;SDS011;74755;43.084;0.132;2024-02-14T11:58:13;1.90;;;1.80;;
84519;SDS011;74755;43.084;0.132;2024-02-14T12:03:12;5.57;;;2.42;;
84519;SDS011;74755;43.084;0.132;2024-02-14T12:05:42;2.30;;;2.20;;
84519;SDS011;74755;43.084;0.132;2024-02-14T12:08:09;2.10;;;2.00;;
84519;SDS011;74755;43.084;0.132;2024-02-14T12:10:35;2.05;;;1.95;;
84519;SDS011;74755;43.084;0.132;2024-02-14T12:13:08;1.90;;;1.90;;
84519;SDS011;74755;43.084;0.132;2024-02-14T12:15:39;2.60;;;2.40;;
84519;SDS011;74755;43.084;0.132;2024-02-14T12:18:05;2.90;;;2.25;;
84519;SDS011;74755;43.084;0.132;2024-02-14T12:20:32;3.70;;;2.40;;
84519;SDS011;74755;43.084;0.132;2024-02-14T12:22:59;2.22;;;2.13;;
84519;SDS011;74755;43.084;0.132;2024-02-14T12:25:25;2.13;;;2.03;;
84519;SDS011;74755;43.084;0.132;2024-02-14T12:27:51;2.00;;;1.90;;
84519;SDS011;74755;43.084;0.132;2024-02-14T12:30:18;2.00;;;1.90;;
84519;SDS011;74755;43.084;0.132;2024-02-14T12:32:45;2.30;;;2.20;;
84519;SDS011;74755;43.084;0.132;2024-02-14T12:35:11;2.40;;;2.10;;
84519;SDS011;74755;43.084;0.132;2024-02-14T12:37:37;3.47;;;2.22;;
84519;SDS011;74755;43.084;0.132;2024-02-14T12:40:04;2.85;;;2.60;;
84519;SDS011;74755;43.084;0.132;2024-02-14T12:42:30;3.13;;;2.58;;
84519;SDS011;74755;43.084;0.132;2024-02-14T12:44:57;2.60;;;2.40;;
84519;SDS011;74755;43.084;0.132;2024-02-14T12:47:24;2.17;;;2.08;;
84519;SDS011;74755;43.084;0.132;2024-02-14T12:49:56;3.88;;;2.40;;
84519;SDS011;74755;43.084;0.132;2024-02-14T12:52:24;3.15;;;2.70;;
84519;SDS011;74755;43.084;0.132;2024-02-14T12:54:50;3.67;;;2.90;;
84519;SDS011;74755;43.084;0.132;2024-02-14T12:57:16;12.45;;;5.28;;
84519;SDS011;74755;43.084;0.132;2024-02-14T12:59:43;11.27;;;4.93;;
84519;SDS011;74755;43.084;0.132;2024-02-14T13:02:10;3.45;;;3.15;;
84519;SDS011;74755;43.084;0.132;2024-02-14T13:04:37;4.50;;;3.63;;
84519;SDS011;74755;43.084;0.132;2024-02-14T13:07:03;2.33;;;2.22;;
84519;SDS011;74755;43.084;0.132;2024-02-14T13:09:30;1.90;;;1.80;;
84519;SDS011;74755;43.084;0.132;2024-02-14T13:11:56;3.50;;;2.70;;
84519;SDS011;74755;43.084;0.132;2024-02-14T13:14:22;2.95;;;2.35;;
84519;SDS011;74755;43.084;0.132;2024-02-14T13:16:48;6.50;;;2.13;;
84519;SDS011;74755;43.084;0.132;2024-02-14T13:19:14;2.30;;;2.10;;
84519;SDS011;74755;43.084;0.132;2024-02-14T13:21:43;4.47;;;2.00;;
84519;SDS011;74755;43.084;0.132;2024-02-14T13:24:10;2.55;;;2.38;;
84519;SDS011;74755;43.084;0.132;2024-02-14T13:26:38;3.80;;;3.22;;
84519;SDS011;74755;43.084;0.132;2024-02-14T13:29:04;2.97;;;2.72;;
84519;SDS011;74755;43.084;0.132;2024-02-14T13:31:30;2.65;;;2.45;;
84519;SDS011;74755;43.084;0.132;2024-02-14T13:33:56;4.88;;;2.47;;
84519;SDS011;74755;43.084;0.132;2024-02-14T13:36:22;3.28;;;2.97;;
84519;SDS011;74755;43.084;0.132;2024-02-14T13:38:49;3.10;;;2.75;;
84519;SDS011;74755;43.084;0.132;2024-02-14T13:41:15;4.13;;;2.83;;
84519;SDS011;74755;43.084;0.132;2024-02-14T13:43:42;5.28;;;2.30;;
84519;SDS011;74755;43.084;0.132;2024-02-14T13:46:11;4.60;;;2.20;;
84519;SDS011;74755;43.084;0.132;2024-02-14T13:48:37;3.88;;;1.90;;
84519;SDS011;74755;43.084;0.132;2024-02-14T13:51:03;2.10;;;2.00;;
84519;SDS011;74755;43.084;0.132;2024-02-14T13:53:29;3.53;;;2.75;;
84519;SDS011;74755;43.084;0.132;2024-02-14T13:55:55;2.25;;;2.00;;
84519;SDS011;74755;43.084;0.132;2024-02-14T13:58:21;3.53;;;2.13;;
84519;SDS011;74755;43.084;0.132;2024-02-14T14:00:47;2.85;;;2.00;;
84519;SDS011;74755;43.084;0.132;2024-02-14T14:03:13;2.00;;;1.80;;
84519;SDS011;74755;43.084;0.132;2024-02-14T14:05:39;1.80;;;1.70;;
84519;SDS011;74755;43.084;0.132;2024-02-14T14:08:05;2.13;;;2.03;;
84519;SDS011;74755;43.084;0.132;2024-02-14T14:10:31;2.08;;;1.98;;
84519;SDS011;74755;43.084;0.132;2024-02-14T14:12:57;2.10;;;2.00;;
84519;SDS011;74755;43.084;0.132;2024-02-14T14:15:23;3.15;;;2.60;;
84519;SDS011;74755;43.084;0.132;2024-02-14T14:17:51;32.20;;;14.45;;
84519;SDS011;74755;43.084;0.132;2024-02-14T14:20:17;2.88;;;2.60;;
84519;SDS011;74755;43.084;0.132;2024-02-14T14:22:44;2.70;;;2.50;;
84519;SDS011;74755;43.084;0.132;2024-02-14T14:25:10;2.88;;;2.65;;
84519;SDS011;74755;43.084;0.132;2024-02-14T14:27:36;1.98;;;0.80;;
84519;SDS011;74755;43.084;0.132;2024-02-14T14:30:02;2.10;;;0.60;;
84519;SDS011;74755;43.084;0.132;2024-02-14T14:32:29;1.63;;;0.60;;
84519;SDS011;74755;43.084;0.132;2024-02-14T14:34:55;1.55;;;0.60;;
84519;SDS011;74755;43.084;0.132;2024-02-14T14:37:21;3.80;;;0.95;;
84519;SDS011;74755;43.084;0.132;2024-02-14T14:39:47;1.83;;;0.60;;
84519;SDS011;74755;43.084;0.132;2024-02-14T14:42:14;1.17;;;0.70;;
84519;SDS011;74755;43.084;0.132;2024-02-14T14:44:40;1.33;;;0.47;;
84519;SDS011;74755;43.084;0.132;2024-02-14T14:47:07;2.35;;;0.40;;
84519;SDS011;74755;43.084;0.132;2024-02-14T14:49:33;1.05;;;0.40;;
84519;SDS011;74755;43.084;0.132;2024-02-14T14:51:59;2.72;;;0.70;;